MiSS Allie — WDG3664 — position and weather

sailwx.info

Track history (hours):
 
Tides and Currents Weather Stations Pressure Air Temp Water Temp Dewpoint Dewpoint Depression Visibility Wind Speed Wind Dir Waves Ship Positions

MiSS Allie

Owner: Genesis Marine, LLC, Houston, TX. More information available from US FCC via Universal Licensing System and Coast Guard Vessel Documentation Center.

Last reported at 2018-May-21 18:39 UTC. Time now 2018-May-22 17:59 UTC.
Position N 29°34' W 090°32'.

Length 29 m; draft 3.2 m.

Type: Other ship. MMSI: 367528420.

Date/timePositionNaut miles runAvg speedWind from/ knotsBaromVisibWave heightAir tempDewpointWater temp
2018-May-21 18:39N 29°34' W 090°32'1 5.3
2018-May-21 18:30N 29°34' W 090°33'139 2.9
2018-May-19 17:47N 29°57' W 093°11'1 4.7
2018-May-19 17:30N 29°58' W 093°12'2 4.8
2018-May-19 17:01N 29°60' W 093°13'2 3.2
2018-May-19 16:30N 30°02' W 093°14'2 4.2
2018-May-19 16:00N 30°03' W 093°16'2 4.4
2018-May-19 15:31N 30°05' W 093°17'1 1.8
2018-May-19 15:00N 30°05' W 093°18'1 2.0
2018-May-19 14:30N 30°06' W 093°19'2 4.9
2018-May-19 14:00N 30°04' W 093°21'2 3.7
2018-May-19 13:30N 30°04' W 093°23'1 1.1
2018-May-19 13:00N 30°04' W 093°23'0 0.8
2018-May-19 12:31N 30°04' W 093°24'2 4.6
2018-May-19 12:00N 30°04' W 093°26'2 4.9
2018-May-19 11:30N 30°04' W 093°29'3 4.9
2018-May-19 10:56N 30°04' W 093°32'5 4.7
2018-May-19 09:46N 30°04' W 093°39'5 4.5
2018-May-19 08:38N 30°02' W 093°44'1 5.1
2018-May-19 08:29N 30°01' W 093°45'3 5.3
2018-May-19 07:58N 29°60' W 093°47'3 5.8
2018-May-19 07:30N 29°59' W 093°50'2 4.7
2018-May-19 06:59N 29°57' W 093°52'2 4.9
2018-May-19 06:31N 29°55' W 093°53'2 3.5
2018-May-19 06:00N 29°53' W 093°55'3 5.7
2018-May-19 05:30N 29°51' W 093°57'2 4.6
2018-May-19 05:00N 29°49' W 093°58'3 5.3
2018-May-19 04:30N 29°48' W 094°01'3 5.5
2018-May-19 04:01N 29°46' W 094°03'3 5.4
2018-May-19 03:30N 29°44' W 094°05'2 4.6
2018-May-19 03:00N 29°43' W 094°07'3 5.2
2018-May-19 02:31N 29°41' W 094°10'2 4.4
2018-May-19 02:00N 29°41' W 094°12'3 5.1
2018-May-19 01:30N 29°40' W 094°15'3 5.1
2018-May-19 01:00N 29°38' W 094°18'2 5.1
2018-May-19 00:30N 29°37' W 094°20'3 5.1
2018-May-19 00:00N 29°36' W 094°23'32 4.8
2018-May-18 17:19N 29°18' W 094°53'2 4.5
2018-May-18 16:52N 29°17' W 094°55'2 5.0
2018-May-18 16:30N 29°17' W 094°57'2 4.3
2018-May-18 16:00N 29°16' W 094°60'2 4.7
2018-May-18 15:31N 29°14' W 095°01'2 4.2
2018-May-18 15:00N 29°12' W 095°03'3 5.0
2018-May-18 14:30N 29°11' W 095°05'3 5.3
2018-May-18 14:00N 29°10' W 095°08'3 5.4
2018-May-18 13:30N 29°08' W 095°10'0 0.4
2018-May-18 13:00N 29°08' W 095°10'1 2.1
2018-May-18 12:30N 29°07' W 095°11'1 2.0
2018-May-18 12:00N 29°06' W 095°12'3 5.4
2018-May-18 11:30N 29°04' W 095°13'3 5.1
2018-May-18 11:00N 29°02' W 095°14'2 4.0
2018-May-18 10:30N 28°60' W 095°15'4 4.7
2018-May-18 09:33N 28°57' W 095°19'1 4.3
2018-May-18 09:22N 28°56' W 095°19'2 4.2
2018-May-18 09:00N 28°55' W 095°21'1 2.2
2018-May-18 08:30N 28°54' W 095°22'0 0.0
2018-May-18 07:56N 28°54' W 095°22'0 0.9
2018-May-18 07:29N 28°54' W 095°22'2 3.2
2018-May-18 06:54N 28°54' W 095°24'0 0.2
2018-May-18 06:30N 28°54' W 095°24'2 4.6
2018-May-18 05:59N 28°55' W 095°22'0 0.0
2018-May-18 05:29N 28°55' W 095°22'1 1.5
2018-May-18 04:59N 28°54' W 095°22'2 2.9
2018-May-18 04:26N 28°54' W 095°24'0 0.3
2018-May-18 04:00N 28°54' W 095°24'2 2.6
2018-May-18 03:02N 28°55' W 095°22'0 0.2
2018-May-18 03:00N 28°55' W 095°22'0 0.1
2018-May-18 02:30N 28°55' W 095°22'0 0.8
2018-May-18 02:00N 28°54' W 095°22'1 1.3
2018-May-18 01:30N 28°54' W 095°23'2 3.0
2018-May-18 00:59N 28°54' W 095°24'0 0.0
2018-May-18 00:31N 28°54' W 095°24'0 0.0
2018-May-17 23:59N 28°54' W 095°24'0 0.0
2018-May-17 23:28N 28°54' W 095°24'0 0.0
2018-May-17 22:46N 28°54' W 095°24'0 0.4
2018-May-17 21:53N 28°53' W 095°25'0 0.0
2018-May-17 21:29N 28°53' W 095°25'28 1.7
2018-May-17 05:01N 28°43' W 095°55'0 0.1
2018-May-17 03:11N 28°43' W 095°55'1 4.0
2018-May-17 03:00N 28°42' W 095°56'2 3.3
2018-May-17 02:30N 28°42' W 095°57'1 1.1
2018-May-17 02:00N 28°41' W 095°58'0 0.0
2018-May-17 01:30N 28°41' W 095°58'0 0.0
2018-May-17 00:56N 28°41' W 095°58'31 2.5
2018-May-16 12:36N 28°25' W 096°28'0 0.4
2018-May-16 12:30N 28°25' W 096°28'0 0.1
2018-May-16 11:35N 28°25' W 096°28'0 0.0
2018-May-16 11:17N 28°25' W 096°28'0 0.0
2018-May-16 10:28N 28°25' W 096°28'0 0.0
2018-May-16 09:49N 28°25' W 096°28'0 0.0
2018-May-16 09:09N 28°25' W 096°28'0 0.0
2018-May-16 08:59N 28°25' W 096°28'3 1.5
2018-May-16 06:45N 28°23' W 096°31'9 5.0
2018-May-16 05:02N 28°19' W 096°40'3 5.5
2018-May-16 04:34N 28°18' W 096°42'0 5.6
2018-May-16 04:30N 28°17' W 096°42'4 7.0
2018-May-16 04:00N 28°15' W 096°46'3 6.1
2018-May-16 03:31N 28°13' W 096°48'3 5.3
2018-May-16 03:00N 28°12' W 096°50'3 5.4
2018-May-16 02:30N 28°10' W 096°53'  
Track history (hours):
 
Tides and Currents Weather Stations Pressure Air Temp Water Temp Dewpoint Dewpoint Depression Visibility Wind Speed Wind Dir Waves Ship Positions

MiSS Allie

Owner: Genesis Marine, LLC, Houston, TX. More information available from US FCC via Universal Licensing System and Coast Guard Vessel Documentation Center.

Last reported at 2018-May-21 18:39 UTC. Time now 2018-May-22 17:59 UTC.
Position N 29°34' W 090°32'.

Length 29 m; draft 3.2 m.

Type: Other ship. MMSI: 367528420.

Date/timePositionNaut miles runAvg speedWind from/ knotsBaromVisibWave heightAir tempDewpointWater temp
2018-May-21 18:39N 29°34' W 090°32'1 5.3
2018-May-21 18:30N 29°34' W 090°33'139 2.9
2018-May-19 17:47N 29°57' W 093°11'1 4.7
2018-May-19 17:30N 29°58' W 093°12'2 4.8
2018-May-19 17:01N 29°60' W 093°13'2 3.2
2018-May-19 16:30N 30°02' W 093°14'2 4.2
2018-May-19 16:00N 30°03' W 093°16'2 4.4
2018-May-19 15:31N 30°05' W 093°17'1 1.8
2018-May-19 15:00N 30°05' W 093°18'1 2.0
2018-May-19 14:30N 30°06' W 093°19'2 4.9
2018-May-19 14:00N 30°04' W 093°21'2 3.7
2018-May-19 13:30N 30°04' W 093°23'1 1.1
2018-May-19 13:00N 30°04' W 093°23'0 0.8
2018-May-19 12:31N 30°04' W 093°24'2 4.6
2018-May-19 12:00N 30°04' W 093°26'2 4.9
2018-May-19 11:30N 30°04' W 093°29'3 4.9
2018-May-19 10:56N 30°04' W 093°32'5 4.7
2018-May-19 09:46N 30°04' W 093°39'5 4.5
2018-May-19 08:38N 30°02' W 093°44'1 5.1
2018-May-19 08:29N 30°01' W 093°45'3 5.3
2018-May-19 07:58N 29°60' W 093°47'3 5.8
2018-May-19 07:30N 29°59' W 093°50'2 4.7
2018-May-19 06:59N 29°57' W 093°52'2 4.9
2018-May-19 06:31N 29°55' W 093°53'2 3.5
2018-May-19 06:00N 29°53' W 093°55'3 5.7
2018-May-19 05:30N 29°51' W 093°57'2 4.6
2018-May-19 05:00N 29°49' W 093°58'3 5.3
2018-May-19 04:30N 29°48' W 094°01'3 5.5
2018-May-19 04:01N 29°46' W 094°03'3 5.4
2018-May-19 03:30N 29°44' W 094°05'2 4.6
2018-May-19 03:00N 29°43' W 094°07'3 5.2
2018-May-19 02:31N 29°41' W 094°10'2 4.4
2018-May-19 02:00N 29°41' W 094°12'3 5.1
2018-May-19 01:30N 29°40' W 094°15'3 5.1
2018-May-19 01:00N 29°38' W 094°18'2 5.1
2018-May-19 00:30N 29°37' W 094°20'3 5.1
2018-May-19 00:00N 29°36' W 094°23'32 4.8
2018-May-18 17:19N 29°18' W 094°53'2 4.5
2018-May-18 16:52N 29°17' W 094°55'2 5.0
2018-May-18 16:30N 29°17' W 094°57'2 4.3
2018-May-18 16:00N 29°16' W 094°60'2 4.7
2018-May-18 15:31N 29°14' W 095°01'2 4.2
2018-May-18 15:00N 29°12' W 095°03'3 5.0
2018-May-18 14:30N 29°11' W 095°05'3 5.3
2018-May-18 14:00N 29°10' W 095°08'3 5.4
2018-May-18 13:30N 29°08' W 095°10'0 0.4
2018-May-18 13:00N 29°08' W 095°10'1 2.1
2018-May-18 12:30N 29°07' W 095°11'1 2.0
2018-May-18 12:00N 29°06' W 095°12'3 5.4
2018-May-18 11:30N 29°04' W 095°13'3 5.1
2018-May-18 11:00N 29°02' W 095°14'2 4.0
2018-May-18 10:30N 28°60' W 095°15'4 4.7
2018-May-18 09:33N 28°57' W 095°19'1 4.3
2018-May-18 09:22N 28°56' W 095°19'2 4.2
2018-May-18 09:00N 28°55' W 095°21'1 2.2
2018-May-18 08:30N 28°54' W 095°22'0 0.0
2018-May-18 07:56N 28°54' W 095°22'0 0.9
2018-May-18 07:29N 28°54' W 095°22'2 3.2
2018-May-18 06:54N 28°54' W 095°24'0 0.2
2018-May-18 06:30N 28°54' W 095°24'2 4.6
2018-May-18 05:59N 28°55' W 095°22'0 0.0
2018-May-18 05:29N 28°55' W 095°22'1 1.5
2018-May-18 04:59N 28°54' W 095°22'2 2.9
2018-May-18 04:26N 28°54' W 095°24'0 0.3
2018-May-18 04:00N 28°54' W 095°24'2 2.6
2018-May-18 03:02N 28°55' W 095°22'0 0.2
2018-May-18 03:00N 28°55' W 095°22'0 0.1
2018-May-18 02:30N 28°55' W 095°22'0 0.8
2018-May-18 02:00N 28°54' W 095°22'1 1.3
2018-May-18 01:30N 28°54' W 095°23'2 3.0
2018-May-18 00:59N 28°54' W 095°24'0 0.0
2018-May-18 00:31N 28°54' W 095°24'0 0.0
2018-May-17 23:59N 28°54' W 095°24'0 0.0
2018-May-17 23:28N 28°54' W 095°24'0 0.0
2018-May-17 22:46N 28°54' W 095°24'0 0.4
2018-May-17 21:53N 28°53' W 095°25'0 0.0
2018-May-17 21:29N 28°53' W 095°25'28 1.7
2018-May-17 05:01N 28°43' W 095°55'0 0.1
2018-May-17 03:11N 28°43' W 095°55'1 4.0
2018-May-17 03:00N 28°42' W 095°56'2 3.3
2018-May-17 02:30N 28°42' W 095°57'1 1.1
2018-May-17 02:00N 28°41' W 095°58'0 0.0
2018-May-17 01:30N 28°41' W 095°58'0 0.0
2018-May-17 00:56N 28°41' W 095°58'31 2.5
2018-May-16 12:36N 28°25' W 096°28'0 0.4
2018-May-16 12:30N 28°25' W 096°28'0 0.1
2018-May-16 11:35N 28°25' W 096°28'0 0.0
2018-May-16 11:17N 28°25' W 096°28'0 0.0
2018-May-16 10:28N 28°25' W 096°28'0 0.0
2018-May-16 09:49N 28°25' W 096°28'0 0.0
2018-May-16 09:09N 28°25' W 096°28'0 0.0
2018-May-16 08:59N 28°25' W 096°28'3 1.5
2018-May-16 06:45N 28°23' W 096°31'9 5.0
2018-May-16 05:02N 28°19' W 096°40'3 5.5
2018-May-16 04:34N 28°18' W 096°42'0 5.6
2018-May-16 04:30N 28°17' W 096°42'4 7.0
2018-May-16 04:00N 28°15' W 096°46'3 6.1
2018-May-16 03:31N 28°13' W 096°48'3 5.3
2018-May-16 03:00N 28°12' W 096°50'3 5.4
2018-May-16 02:30N 28°10' W 096°53'  

Dump ship's entire track history